Terminal Aerodrome Forecast
Issued by NWS

Home | Current Version | Previous Version | Text Only | Print | Product List | Glossary On
Versions: 1 2 3 4 5 6 7 8 9 10 11 12 13 14 15 16 17 18 19 20 21 22 23 24 25 26
000
FTUS42 KCAE 292323
TAFOGB
TAF
KOGB 292323Z 3000/3024 36010G16KT 6SM BR VCSH SCT008 OVC012
      TEMPO 3000/3003 5SM -SHRA BKN025
     FM300300 36010KT 4SM BR SCT007 OVC012
     FM300600 02008KT 3SM BR OVC007
     FM301400 25008KT 6SM -SHRA SCT007 OVC015
     FM301800 35008KT P6SM VCSH OVC035=

USA.gov is the U.S. government's official web portal to all federal, state and local government web resources and services.